createdAt,value
2023-01-04T00:00:10.086Z,5.60
2023-01-04T00:05:13.573Z,5.60
2023-01-04T00:10:15.711Z,5.70
2023-01-04T00:15:17.982Z,5.80
2023-01-04T00:20:21.330Z,5.80
2023-01-04T00:25:23.863Z,5.90
2023-01-04T00:30:26.178Z,5.80
2023-01-04T00:35:45.145Z,5.80
2023-01-04T00:40:47.986Z,5.80
2023-01-04T00:45:51.077Z,5.70
2023-01-04T00:50:54.693Z,5.70
2023-01-04T00:56:01.800Z,5.70
2023-01-04T01:01:07.206Z,5.70
2023-01-04T01:06:11.104Z,5.70
2023-01-04T01:11:13.966Z,5.70
2023-01-04T01:16:27.329Z,5.70
2023-01-04T01:21:42.379Z,5.50
2023-01-04T01:26:44.729Z,5.20
2023-01-04T01:31:47.075Z,5.10
2023-01-04T01:36:50.941Z,5.00
2023-01-04T01:41:52.894Z,4.90
2023-01-04T01:46:56.165Z,4.80
2023-01-04T01:52:03.812Z,4.70
2023-01-04T01:57:08.741Z,4.70
2023-01-04T02:02:12.185Z,4.80
2023-01-04T02:07:20.792Z,4.60
2023-01-04T02:12:23.452Z,4.60
2023-01-04T02:17:37.934Z,4.40
2023-01-04T02:23:02.391Z,4.10
2023-01-04T02:28:09.699Z,4.20
2023-01-04T02:33:24.537Z,4.20
2023-01-04T02:38:33.820Z,4.00
2023-01-04T02:44:03.247Z,3.90
2023-01-04T02:49:23.871Z,3.90
2023-01-04T02:54:31.010Z,3.70
2023-01-04T02:59:49.765Z,3.70
2023-01-04T03:05:20.960Z,3.80
2023-01-04T03:10:33.203Z,3.60
2023-01-04T03:15:38.451Z,3.60
2023-01-04T03:20:44.464Z,3.50
2023-01-04T03:26:08.103Z,3.40
2023-01-04T03:31:31.628Z,3.20
2023-01-04T03:36:45.518Z,3.10
2023-01-04T03:42:07.741Z,3.10
2023-01-04T03:47:33.516Z,3.00
2023-01-04T03:52:38.190Z,3.10
2023-01-04T03:57:41.787Z,3.10
2023-01-04T04:02:46.322Z,3.20
2023-01-04T04:08:07.433Z,3.30
2023-01-04T04:13:09.819Z,3.50
2023-01-04T04:18:11.783Z,3.80
2023-01-04T04:23:15.649Z,3.90
2023-01-04T04:28:17.720Z,4.00
2023-01-04T04:33:20.110Z,4.10
2023-01-04T04:38:24.533Z,4.10
2023-01-04T04:43:26.724Z,4.00
2023-01-04T04:48:28.791Z,4.10
2023-01-04T04:53:32.182Z,4.00
2023-01-04T04:58:34.732Z,3.90
2023-01-04T05:03:37.270Z,3.60
2023-01-04T05:08:41.096Z,3.60
2023-01-04T05:13:43.475Z,3.40
2023-01-04T05:18:45.756Z,3.20
2023-01-04T05:23:49.917Z,3.00
2023-01-04T05:28:54.099Z,3.00
2023-01-04T05:33:56.723Z,3.00
2023-01-04T05:38:59.888Z,3.10
2023-01-04T05:44:02.093Z,2.90
2023-01-04T05:49:03.955Z,2.50
2023-01-04T05:54:07.648Z,2.40
2023-01-04T05:59:09.753Z,2.40
2023-01-04T06:04:11.726Z,2.60
2023-01-04T06:09:15.725Z,2.80
2023-01-04T06:14:18.167Z,3.00
2023-01-04T06:19:20.523Z,3.20
2023-01-04T06:24:24.539Z,3.30
2023-01-04T06:29:26.654Z,3.30
2023-01-04T06:34:31.336Z,3.20
2023-01-04T06:39:35.169Z,3.00
2023-01-04T06:44:37.019Z,2.80
2023-01-04T06:49:38.978Z,2.60
2023-01-04T06:54:42.430Z,2.60
2023-01-04T06:59:44.496Z,2.60
2023-01-04T07:04:47.026Z,2.70
2023-01-04T07:09:50.461Z,2.80
2023-01-04T07:14:52.825Z,3.10
2023-01-04T07:19:55.225Z,3.30
2023-01-04T07:24:58.753Z,3.40
2023-01-04T07:30:01.139Z,3.40
2023-01-04T07:35:03.257Z,3.60
2023-01-04T07:40:07.989Z,3.70
2023-01-04T07:45:10.920Z,3.80
2023-01-04T07:50:12.925Z,3.90
2023-01-04T07:55:16.916Z,3.90
2023-01-04T08:00:19.549Z,4.00
2023-01-04T08:05:23.124Z,4.10
2023-01-04T08:10:26.983Z,4.20
2023-01-04T08:15:29.398Z,4.30
2023-01-04T08:20:31.729Z,4.50
2023-01-04T08:25:37.252Z,4.80
2023-01-04T08:30:42.353Z,4.90
2023-01-04T08:35:44.566Z,5.20
2023-01-04T08:40:59.634Z,5.40
2023-01-04T08:46:07.712Z,5.50
2023-01-04T08:51:27.794Z,5.80
2023-01-04T08:57:06.480Z,5.90
2023-01-04T09:02:28.280Z,6.10
2023-01-04T09:07:31.166Z,6.40
2023-01-04T09:12:34.932Z,6.50
2023-01-04T09:17:46.458Z,6.50
2023-01-04T09:22:59.885Z,6.50
2023-01-04T09:28:03.675Z,6.70
2023-01-04T09:33:05.944Z,7.00
2023-01-04T09:38:08.354Z,7.30
2023-01-04T09:43:22.170Z,7.50
2023-01-04T09:48:30.528Z,7.50
2023-01-04T09:53:37.824Z,7.90
2023-01-04T09:58:43.377Z,7.80
2023-01-04T10:03:53.158Z,8.20
2023-01-04T10:08:57.800Z,8.50
2023-01-04T10:14:29.986Z,8.60
2023-01-04T10:21:12.859Z,8.20
2023-01-04T10:25:29.139Z,8.00
2023-01-04T10:30:37.381Z,7.90
2023-01-04T10:35:41.093Z,7.80
2023-01-04T10:40:43.373Z,7.80
2023-01-04T10:45:51.936Z,7.90
2023-01-04T10:50:59.842Z,8.00
2023-01-04T10:56:24.302Z,8.10
2023-01-04T11:01:38.309Z,7.90
2023-01-04T11:06:46.057Z,7.90
2023-01-04T11:11:51.158Z,7.90
2023-01-04T11:17:01.260Z,7.80
2023-01-04T11:22:09.334Z,7.80
2023-01-04T11:27:20.892Z,7.80
2023-01-04T11:32:36.921Z,7.80
2023-01-04T11:37:40.069Z,7.80
2023-01-04T11:42:42.468Z,7.90
2023-01-04T11:47:51.909Z,7.90
2023-01-04T11:52:54.030Z,7.90
2023-01-04T11:58:11.999Z,8.10
2023-01-04T12:03:17.969Z,8.20
2023-01-04T12:08:31.948Z,8.30
2023-01-04T12:13:35.852Z,8.30
2023-01-04T12:18:42.795Z,8.40
2023-01-04T12:23:45.641Z,8.60
2023-01-04T12:28:49.917Z,8.70
2023-01-04T12:33:55.487Z,8.50
2023-01-04T12:39:23.100Z,8.50
2023-01-04T12:45:02.344Z,8.50
2023-01-04T12:50:09.171Z,8.60
2023-01-04T12:55:59.522Z,8.60
2023-01-04T13:01:25.060Z,8.50
2023-01-04T13:06:32.582Z,8.50
2023-01-04T13:11:53.661Z,8.60
2023-01-04T13:17:21.487Z,8.60
2023-01-04T13:22:30.253Z,8.50
2023-01-04T13:27:33.669Z,8.60
2023-01-04T13:32:59.556Z,8.60
2023-01-04T13:38:01.521Z,8.60
2023-01-04T13:43:38.109Z,8.50
2023-01-04T13:48:42.586Z,8.40
2023-01-04T13:53:54.418Z,8.40
2023-01-04T13:58:56.654Z,8.40
2023-01-04T14:04:01.391Z,8.50
2023-01-04T14:09:08.271Z,8.40
2023-01-04T14:14:39.562Z,8.40
2023-01-04T14:19:47.930Z,8.40
2023-01-04T14:25:09.866Z,8.40
2023-01-04T14:30:25.413Z,8.40
2023-01-04T14:35:29.132Z,8.30
2023-01-04T14:40:33.280Z,8.30
2023-01-04T14:45:35.573Z,8.30
2023-01-04T14:50:37.597Z,8.30
2023-01-04T14:55:41.545Z,8.30
2023-01-04T15:00:43.670Z,8.20
2023-01-04T15:05:47.662Z,8.10
2023-01-04T15:10:54.725Z,8.00
2023-01-04T15:16:00.296Z,8.00
2023-01-04T15:21:04.015Z,7.90
2023-01-04T15:26:09.903Z,7.90
2023-01-04T15:31:13.888Z,7.90
2023-01-04T15:36:23.803Z,7.80
2023-01-04T15:41:45.080Z,7.80
2023-01-04T15:46:46.990Z,7.70
2023-01-04T15:51:49.504Z,7.60
2023-01-04T15:56:53.022Z,7.60
2023-01-04T16:01:55.923Z,7.50
2023-01-04T16:06:58.260Z,7.50
2023-01-04T16:12:19.118Z,7.50
2023-01-04T16:17:21.117Z,7.50
2023-01-04T16:22:23.437Z,7.50
2023-01-04T16:27:33.092Z,7.50
2023-01-04T16:32:37.780Z,7.50
2023-01-04T16:37:40.243Z,7.40
2023-01-04T16:42:50.781Z,7.40
2023-01-04T16:47:53.935Z,7.40
2023-01-04T16:52:56.283Z,7.40
2023-01-04T16:58:00.488Z,7.40
2023-01-04T17:03:02.887Z,7.50
2023-01-04T17:08:05.183Z,7.60
2023-01-04T17:13:09.013Z,7.90
2023-01-04T17:18:13.150Z,8.40
2023-01-04T17:23:15.772Z,8.90
2023-01-04T17:28:24.874Z,8.80
2023-01-04T17:33:27.746Z,8.70
2023-01-04T17:38:29.885Z,8.60
2023-01-04T17:43:33.547Z,8.70
2023-01-04T17:48:37.089Z,8.70
2023-01-04T17:53:40.851Z,8.60
2023-01-04T17:58:45.207Z,8.80
2023-01-04T18:03:50.402Z,8.80
2023-01-04T18:08:52.605Z,8.90
2023-01-04T18:13:59.042Z,8.90
2023-01-04T18:19:03.048Z,8.90
2023-01-04T18:29:32.361Z,9.10
2023-01-04T18:34:35.957Z,8.90
2023-01-04T18:39:39.535Z,9.00
2023-01-04T18:44:49.108Z,8.90
2023-01-04T18:49:53.768Z,8.80
2023-01-04T18:54:56.680Z,8.80
2023-01-04T19:00:02.671Z,8.70
2023-01-04T19:05:08.176Z,8.80
2023-01-04T19:10:11.764Z,8.70
2023-01-04T19:15:18.977Z,8.70
2023-01-04T19:20:22.679Z,8.60
2023-01-04T19:25:28.432Z,8.70
2023-01-04T19:30:34.128Z,8.70
2023-01-04T19:35:37.287Z,8.60
2023-01-04T19:40:41.933Z,8.60
2023-01-04T19:45:46.277Z,8.70
2023-01-04T19:50:50.259Z,8.90
2023-01-04T19:55:57.845Z,8.90
2023-01-04T20:01:02.926Z,8.80
2023-01-04T20:06:08.440Z,8.80
2023-01-04T20:11:11.832Z,8.90
2023-01-04T20:16:16.273Z,8.90
2023-01-04T20:21:19.525Z,8.80
2023-01-04T20:26:24.936Z,8.60
2023-01-04T20:31:32.789Z,8.60
2023-01-04T20:36:36.217Z,8.60
2023-01-04T20:42:00.548Z,8.60
2023-01-04T20:47:07.542Z,8.70
2023-01-04T20:52:11.379Z,8.90
2023-01-04T20:57:16.083Z,8.90
2023-01-04T21:02:21.105Z,9.00
2023-01-04T21:07:24.571Z,8.90
2023-01-04T21:12:27.141Z,8.90
2023-01-04T21:17:32.922Z,8.80
2023-01-04T21:22:36.635Z,8.80
2023-01-04T21:27:39.430Z,8.80
2023-01-04T21:32:43.039Z,8.80
2023-01-04T21:37:45.780Z,8.90
2023-01-04T21:42:49.815Z,8.90
2023-01-04T21:47:55.961Z,8.90
2023-01-04T21:52:58.986Z,8.90
2023-01-04T21:58:01.239Z,8.90
2023-01-04T22:03:04.608Z,8.90
2023-01-04T22:08:07.125Z,8.90
2023-01-04T22:13:09.876Z,9.00
2023-01-04T22:18:14.274Z,8.90
2023-01-04T22:23:16.453Z,9.00
2023-01-04T22:28:18.752Z,9.00
2023-01-04T22:33:23.028Z,9.00
2023-01-04T22:38:25.221Z,9.10
2023-01-04T22:43:27.793Z,9.30
2023-01-04T22:48:31.761Z,9.30
2023-01-04T22:53:33.781Z,9.30
2023-01-04T22:58:36.940Z,9.40
2023-01-04T23:03:43.443Z,9.50
2023-01-04T23:08:45.853Z,9.50
2023-01-04T23:13:48.289Z,9.40
2023-01-04T23:18:51.747Z,9.40
2023-01-04T23:23:53.923Z,9.20
2023-01-04T23:28:56.812Z,9.10
2023-01-04T23:34:02.410Z,9.00
2023-01-04T23:39:07.033Z,9.00
2023-01-04T23:44:10.117Z,8.90
2023-01-04T23:49:14.332Z,8.70
2023-01-04T23:54:16.617Z,8.60
2023-01-04T23:59:19.080Z,8.60
